createdAt,value
2023-05-22T00:00:05.252Z,18.68
2023-05-22T00:01:05.270Z,18.70
2023-05-22T00:02:05.264Z,18.66
2023-05-22T00:03:05.285Z,18.73
2023-05-22T00:04:05.230Z,18.78
2023-05-22T00:05:05.283Z,18.73
2023-05-22T00:06:05.196Z,18.70
2023-05-22T00:07:05.193Z,18.71
2023-05-22T00:08:06.154Z,18.70
2023-05-22T00:09:05.161Z,18.70
2023-05-22T00:10:05.151Z,18.71
2023-05-22T00:11:05.168Z,18.58
2023-05-22T00:12:05.120Z,18.63
2023-05-22T00:13:05.117Z,18.65
2023-05-22T00:14:05.099Z,18.56
2023-05-22T00:15:05.095Z,18.58
2023-05-22T00:16:05.079Z,18.56
2023-05-22T00:17:05.119Z,18.52
2023-05-22T00:18:05.072Z,18.45
2023-05-22T00:19:05.112Z,18.49
2023-05-22T00:20:05.029Z,18.45
2023-05-22T00:21:05.023Z,18.40
2023-05-22T00:22:05.013Z,18.49
2023-05-22T00:23:05.005Z,18.44
2023-05-22T00:24:05.020Z,18.43
2023-05-22T00:25:04.995Z,18.47
2023-05-22T00:26:04.966Z,18.38
2023-05-22T00:27:04.951Z,18.38
2023-05-22T00:28:04.936Z,18.37
2023-05-22T00:29:04.957Z,18.41
2023-05-22T00:30:04.914Z,18.47
2023-05-22T00:31:04.908Z,18.38
2023-05-22T00:32:04.903Z,18.40
2023-05-22T00:33:04.938Z,18.38
2023-05-22T00:34:04.937Z,18.28
2023-05-22T00:35:04.942Z,18.28
2023-05-22T00:36:04.855Z,18.26
2023-05-22T00:37:04.840Z,18.25
2023-05-22T00:38:04.826Z,18.26
2023-05-22T00:39:04.832Z,18.29
2023-05-22T00:40:04.829Z,18.19
2023-05-22T00:41:04.819Z,18.23
2023-05-22T00:42:04.793Z,18.22
2023-05-22T00:43:04.770Z,18.26
2023-05-22T00:44:04.771Z,18.34
2023-05-22T00:45:04.756Z,18.33
2023-05-22T00:46:04.778Z,18.33
2023-05-22T00:47:04.743Z,18.44
2023-05-22T00:48:04.759Z,18.38
2023-05-22T00:49:04.721Z,18.34
2023-05-22T00:50:04.689Z,18.34
2023-05-22T00:51:04.686Z,18.37
2023-05-22T00:52:04.666Z,18.38
2023-05-22T00:53:04.667Z,18.33
2023-05-22T00:54:04.683Z,18.38
2023-05-22T00:55:04.642Z,18.38
2023-05-22T00:56:04.657Z,18.35
2023-05-22T00:57:04.638Z,18.43
2023-05-22T00:58:04.624Z,18.41
2023-05-22T00:59:04.596Z,18.38
2023-05-22T01:00:04.605Z,18.44
2023-05-22T01:01:04.567Z,18.50
2023-05-22T01:02:04.597Z,18.50
2023-05-22T01:03:04.673Z,18.43
2023-05-22T01:04:04.565Z,18.50
2023-05-22T01:05:04.527Z,18.50
2023-05-22T01:06:04.522Z,18.45
2023-05-22T01:07:04.497Z,18.47
2023-05-22T01:08:04.490Z,18.38
2023-05-22T01:09:04.514Z,18.44
2023-05-22T01:10:04.493Z,18.41
2023-05-22T01:11:04.462Z,18.47
2023-05-22T01:12:04.471Z,18.34
2023-05-22T01:13:04.438Z,18.26
2023-05-22T01:14:04.419Z,18.23
2023-05-22T01:15:04.458Z,18.25
2023-05-22T01:16:04.469Z,18.25
2023-05-22T01:17:04.392Z,18.23
2023-05-22T01:18:04.418Z,18.29
2023-05-22T01:19:04.391Z,18.37
2023-05-22T01:20:04.354Z,18.34
2023-05-22T01:21:04.373Z,18.33
2023-05-22T01:22:04.347Z,18.26
2023-05-22T01:23:04.314Z,18.20
2023-05-22T01:24:04.316Z,18.26
2023-05-22T01:25:04.296Z,18.20
2023-05-22T01:26:04.303Z,18.23
2023-05-22T01:27:04.285Z,18.22
2023-05-22T01:28:04.298Z,18.18
2023-05-22T01:29:04.264Z,18.16
2023-05-22T01:30:04.239Z,18.22
2023-05-22T01:31:04.231Z,18.25
2023-05-22T01:32:04.220Z,18.22
2023-05-22T01:33:04.327Z,18.22
2023-05-22T01:34:04.290Z,18.20
2023-05-22T01:35:04.217Z,18.26
2023-05-22T01:36:04.174Z,18.22
2023-05-22T01:37:04.161Z,18.34
2023-05-22T01:38:04.168Z,18.37
2023-05-22T01:39:04.163Z,18.23
2023-05-22T01:40:04.139Z,18.25
2023-05-22T01:41:04.121Z,18.23
2023-05-22T01:42:04.119Z,18.22
2023-05-22T01:43:04.089Z,18.23
2023-05-22T01:44:04.233Z,18.22
2023-05-22T01:45:04.104Z,18.34
2023-05-22T01:46:04.118Z,18.19
2023-05-22T01:47:04.053Z,18.22
2023-05-22T01:48:04.062Z,18.22
2023-05-22T01:49:04.032Z,18.20
2023-05-22T01:50:04.031Z,18.18
2023-05-22T01:51:04.018Z,18.19
2023-05-22T01:52:03.996Z,18.08
2023-05-22T01:53:03.981Z,18.05
2023-05-22T01:54:03.972Z,18.08
2023-05-22T01:55:03.971Z,18.08
2023-05-22T01:56:03.968Z,18.05
2023-05-22T01:57:03.932Z,18.05
2023-05-22T01:58:03.938Z,18.10
2023-05-22T01:59:03.933Z,18.04
2023-05-22T02:00:03.923Z,18.11
2023-05-22T02:01:03.982Z,18.07
2023-05-22T02:02:03.912Z,18.15
2023-05-22T02:03:04.062Z,18.04
2023-05-22T02:04:03.874Z,18.07
2023-05-22T02:05:03.865Z,18.11
2023-05-22T02:06:03.856Z,18.11
2023-05-22T02:07:03.842Z,18.04
2023-05-22T02:08:03.810Z,18.03
2023-05-22T02:09:03.819Z,17.98
2023-05-22T02:10:03.809Z,18.01
2023-05-22T02:11:03.788Z,18.00
2023-05-22T02:12:03.782Z,18.11
2023-05-22T02:13:03.752Z,18.01
2023-05-22T02:14:03.750Z,18.04
2023-05-22T02:15:03.748Z,18.08
2023-05-22T02:16:03.779Z,18.00
2023-05-22T02:17:03.742Z,18.00
2023-05-22T02:18:03.756Z,18.01
2023-05-22T02:19:03.776Z,18.07
2023-05-22T02:20:03.677Z,18.04
2023-05-22T02:21:03.678Z,18.10
2023-05-22T02:22:03.662Z,17.97
2023-05-22T02:23:03.681Z,18.01
2023-05-22T02:24:03.686Z,17.97
2023-05-22T02:25:03.616Z,18.04
2023-05-22T02:26:03.605Z,18.11
2023-05-22T02:27:03.642Z,18.05
2023-05-22T02:28:03.588Z,18.07
2023-05-22T02:29:03.636Z,18.03
2023-05-22T02:30:03.572Z,17.97
2023-05-22T02:31:03.660Z,18.03
2023-05-22T02:32:03.574Z,18.08
2023-05-22T02:33:03.604Z,18.08
2023-05-22T02:34:03.520Z,18.00
2023-05-22T02:35:03.518Z,18.03
2023-05-22T02:36:03.501Z,18.00
2023-05-22T02:37:03.481Z,18.00
2023-05-22T02:38:03.560Z,17.98
2023-05-22T02:39:03.457Z,17.92
2023-05-22T02:40:03.457Z,17.94
2023-05-22T02:41:03.443Z,17.92
2023-05-22T02:42:03.432Z,17.94
2023-05-22T02:43:03.444Z,17.95
2023-05-22T02:44:03.422Z,17.95
2023-05-22T02:45:03.439Z,17.95
2023-05-22T02:46:03.499Z,17.90
2023-05-22T02:47:03.418Z,17.97
2023-05-22T02:48:03.637Z,17.94
2023-05-22T02:49:03.347Z,17.94
2023-05-22T02:50:03.331Z,17.95
2023-05-22T02:51:03.343Z,18.00
2023-05-22T02:52:03.331Z,17.94
2023-05-22T02:53:03.303Z,17.94
2023-05-22T02:54:03.297Z,17.87
2023-05-22T02:55:03.282Z,17.87
2023-05-22T02:56:03.300Z,17.83
2023-05-22T02:57:03.253Z,17.80
2023-05-22T02:58:03.244Z,17.87
2023-05-22T02:59:03.233Z,17.83
2023-05-22T03:00:03.224Z,17.86
2023-05-22T03:01:03.252Z,17.85
2023-05-22T03:02:03.348Z,17.83
2023-05-22T03:03:03.248Z,17.86
2023-05-22T03:04:03.412Z,17.80
2023-05-22T03:05:03.171Z,17.79
2023-05-22T03:06:03.161Z,17.83
2023-05-22T03:07:03.152Z,17.82
2023-05-22T03:08:03.129Z,17.76
2023-05-22T03:09:03.140Z,17.74
2023-05-22T03:10:03.104Z,17.83
2023-05-22T03:11:03.098Z,17.80
2023-05-22T03:12:03.084Z,17.82
2023-05-22T03:13:03.069Z,17.78
2023-05-22T03:14:03.072Z,17.80
2023-05-22T03:15:03.089Z,17.74
2023-05-22T03:16:03.088Z,17.83
2023-05-22T03:17:03.028Z,17.76
2023-05-22T03:18:03.069Z,17.72
2023-05-22T03:19:03.054Z,17.78
2023-05-22T03:20:03.127Z,17.80
2023-05-22T03:21:02.978Z,17.80
2023-05-22T03:22:02.988Z,17.79
2023-05-22T03:23:02.986Z,17.67
2023-05-22T03:24:02.971Z,17.68
2023-05-22T03:25:02.945Z,17.67
2023-05-22T03:26:02.975Z,17.71
2023-05-22T03:27:02.945Z,17.64
2023-05-22T03:28:02.908Z,17.60
2023-05-22T03:29:02.965Z,17.74
2023-05-22T03:30:02.887Z,17.59
2023-05-22T03:31:02.871Z,17.70
2023-05-22T03:32:02.906Z,17.57
2023-05-22T03:33:02.886Z,17.54
2023-05-22T03:34:02.947Z,17.64
2023-05-22T03:35:02.843Z,17.65
2023-05-22T03:36:02.849Z,17.63
2023-05-22T03:37:02.801Z,17.57
2023-05-22T03:38:02.940Z,17.59
2023-05-22T03:39:02.795Z,17.48
2023-05-22T03:40:03.411Z,17.52
2023-05-22T03:41:02.770Z,17.51
2023-05-22T03:42:02.760Z,17.48
2023-05-22T03:43:03.735Z,17.48
2023-05-22T03:44:02.726Z,17.41
2023-05-22T03:45:02.731Z,17.38
2023-05-22T03:46:02.782Z,17.36
2023-05-22T03:47:02.689Z,17.45
2023-05-22T03:48:02.798Z,17.41
2023-05-22T03:49:02.682Z,17.33
2023-05-22T03:50:02.667Z,17.34
2023-05-22T03:51:02.678Z,17.36
2023-05-22T03:52:02.666Z,17.36
2023-05-22T03:53:02.624Z,17.36
2023-05-22T03:54:02.613Z,17.36
2023-05-22T03:55:02.631Z,17.29
2023-05-22T03:56:02.605Z,17.27
2023-05-22T03:57:02.581Z,17.24
2023-05-22T03:58:02.573Z,17.27
2023-05-22T03:59:02.553Z,17.24
2023-05-22T04:00:02.547Z,17.29
2023-05-22T04:01:02.545Z,17.24
2023-05-22T04:02:02.593Z,17.26
2023-05-22T04:03:02.577Z,17.29
2023-05-22T04:04:02.518Z,17.27
2023-05-22T04:05:02.532Z,17.26
2023-05-22T04:06:02.487Z,17.20
2023-05-22T04:07:02.476Z,17.26
2023-05-22T04:08:02.479Z,17.20
2023-05-22T04:09:02.456Z,17.26
2023-05-22T04:10:02.447Z,17.30
2023-05-22T04:11:02.426Z,17.27
2023-05-22T04:12:02.447Z,17.27
2023-05-22T04:13:02.392Z,17.26
2023-05-22T04:14:02.386Z,17.23
2023-05-22T04:15:02.381Z,17.31
2023-05-22T04:16:02.428Z,17.29
2023-05-22T04:17:02.354Z,17.22
2023-05-22T04:18:02.392Z,17.27
2023-05-22T04:19:02.385Z,17.29
2023-05-22T04:20:02.345Z,17.30
2023-05-22T04:21:02.306Z,17.29
2023-05-22T04:22:02.319Z,17.27
2023-05-22T04:23:02.285Z,17.33
2023-05-22T04:24:02.299Z,17.30
2023-05-22T04:25:02.262Z,17.36
2023-05-22T04:26:02.254Z,17.33
2023-05-22T04:27:02.246Z,17.41
2023-05-22T04:28:02.236Z,17.36
2023-05-22T04:29:02.227Z,17.34
2023-05-22T04:30:02.231Z,17.38
2023-05-22T04:31:02.260Z,17.44
2023-05-22T04:32:02.193Z,17.49
2023-05-22T04:33:02.190Z,17.48
2023-05-22T04:34:02.169Z,17.42
2023-05-22T04:35:02.164Z,17.38
2023-05-22T04:36:02.138Z,17.51
2023-05-22T04:37:02.136Z,17.51
2023-05-22T04:38:02.237Z,17.46
2023-05-22T04:39:02.113Z,17.45
2023-05-22T04:40:02.111Z,17.48
2023-05-22T04:41:02.072Z,17.52
2023-05-22T04:42:02.070Z,17.64
2023-05-22T04:43:02.059Z,17.56
2023-05-22T04:44:02.059Z,17.65
2023-05-22T04:45:02.034Z,17.49
2023-05-22T04:46:02.022Z,17.46
2023-05-22T04:47:02.141Z,17.59
2023-05-22T04:48:02.040Z,17.63
2023-05-22T04:49:02.184Z,17.63
2023-05-22T04:50:01.976Z,17.63
2023-05-22T04:51:01.980Z,17.63
2023-05-22T04:52:01.967Z,17.56
2023-05-22T04:53:01.944Z,17.64
2023-05-22T04:54:01.945Z,17.64
2023-05-22T04:55:03.314Z,17.65
2023-05-22T04:56:02.027Z,17.60
2023-05-22T04:57:01.910Z,17.78
2023-05-22T04:58:01.899Z,17.64
2023-05-22T04:59:01.899Z,17.68
2023-05-22T05:00:01.908Z,17.65
2023-05-22T05:01:01.898Z,17.71
2023-05-22T05:02:01.849Z,17.64
2023-05-22T05:03:01.992Z,17.67
2023-05-22T05:04:01.873Z,17.80
2023-05-22T05:05:01.814Z,17.76
2023-05-22T05:06:01.800Z,17.86
2023-05-22T05:07:01.782Z,17.83
2023-05-22T05:08:01.798Z,17.83
2023-05-22T05:09:01.754Z,17.87
2023-05-22T05:10:01.766Z,17.82
2023-05-22T05:11:01.743Z,17.95
2023-05-22T05:12:01.751Z,17.97
2023-05-22T05:13:01.717Z,18.01
2023-05-22T05:14:01.730Z,17.98
2023-05-22T05:15:01.718Z,18.04
2023-05-22T05:16:01.718Z,18.07
2023-05-22T05:17:01.724Z,18.11
2023-05-22T05:18:01.758Z,18.08
2023-05-22T05:19:01.714Z,18.13
2023-05-22T05:20:01.639Z,18.26
2023-05-22T05:21:01.620Z,18.23
2023-05-22T05:22:01.643Z,18.33
2023-05-22T05:23:01.624Z,18.26
2023-05-22T05:24:01.591Z,18.22
2023-05-22T05:25:01.635Z,18.26
2023-05-22T05:26:01.587Z,18.25
2023-05-22T05:27:01.549Z,18.23
2023-05-22T05:28:01.588Z,18.20
2023-05-22T05:29:01.542Z,18.20
2023-05-22T05:30:01.528Z,18.19
2023-05-22T05:31:01.549Z,18.22
2023-05-22T05:32:01.582Z,18.34
2023-05-22T05:33:01.564Z,18.29
2023-05-22T05:34:01.477Z,18.34
2023-05-22T05:35:01.477Z,18.41
2023-05-22T05:36:01.458Z,18.33
2023-05-22T05:37:01.446Z,18.43
2023-05-22T05:38:01.436Z,18.34
2023-05-22T05:39:01.413Z,18.41
2023-05-22T05:40:01.439Z,18.33
2023-05-22T05:41:01.419Z,18.40
2023-05-22T05:42:01.380Z,18.43
2023-05-22T05:43:01.377Z,18.38
2023-05-22T05:44:01.384Z,18.38
2023-05-22T05:45:01.362Z,18.52
2023-05-22T05:46:01.434Z,18.52
2023-05-22T05:47:01.337Z,18.53
2023-05-22T05:48:01.406Z,18.49
2023-05-22T05:49:01.337Z,18.47
2023-05-22T05:50:01.315Z,18.47
2023-05-22T05:51:01.291Z,18.53
2023-05-22T05:52:01.276Z,18.55
2023-05-22T05:53:01.273Z,18.58
2023-05-22T05:54:01.254Z,18.62
2023-05-22T05:55:01.256Z,18.65
2023-05-22T05:56:01.248Z,18.66
2023-05-22T05:57:01.224Z,18.68
2023-05-22T05:58:01.222Z,18.71
2023-05-22T05:59:01.211Z,18.80
2023-05-22T06:00:01.214Z,18.71
2023-05-22T06:01:01.195Z,18.81
2023-05-22T06:02:01.190Z,18.88
2023-05-22T06:03:01.359Z,18.93
2023-05-22T06:04:01.244Z,18.90
2023-05-22T06:05:01.209Z,19.02
2023-05-22T06:06:01.167Z,19.11
2023-05-22T06:07:01.128Z,19.09
2023-05-22T06:08:01.130Z,19.24
2023-05-22T06:09:01.083Z,19.27
2023-05-22T06:10:01.088Z,19.22
2023-05-22T06:11:01.069Z,19.26
2023-05-22T06:12:01.048Z,19.29
2023-05-22T06:13:01.037Z,19.37
2023-05-22T06:14:01.043Z,19.51
2023-05-22T06:15:01.043Z,19.69
2023-05-22T06:16:04.071Z,19.82
2023-05-22T06:17:01.000Z,19.58
2023-05-22T06:18:01.040Z,19.41
2023-05-22T06:19:01.017Z,19.47
2023-05-22T06:20:00.989Z,19.33
2023-05-22T06:21:00.970Z,19.33
2023-05-22T06:22:00.941Z,19.21
2023-05-22T06:23:00.930Z,19.29
2023-05-22T06:24:00.947Z,19.40
2023-05-22T06:25:00.924Z,19.47
2023-05-22T06:26:00.894Z,19.59
2023-05-22T06:27:00.885Z,19.62
2023-05-22T06:28:00.891Z,19.62
2023-05-22T06:29:00.863Z,19.69
2023-05-22T06:30:00.869Z,19.81
2023-05-22T06:31:00.841Z,19.85
2023-05-22T06:32:00.889Z,19.82
2023-05-22T06:33:00.900Z,19.71
2023-05-22T06:34:00.854Z,19.70
2023-05-22T06:35:00.790Z,19.84
2023-05-22T06:36:00.809Z,19.82
2023-05-22T06:37:00.782Z,19.81
2023-05-22T06:38:00.772Z,19.81
2023-05-22T06:39:00.756Z,19.92
2023-05-22T06:40:00.759Z,19.94
2023-05-22T06:41:00.734Z,19.91
2023-05-22T06:42:00.718Z,20.02
2023-05-22T06:43:00.745Z,19.95
2023-05-22T06:44:00.727Z,20.00
2023-05-22T06:45:00.701Z,20.07
2023-05-22T06:46:00.716Z,20.04
2023-05-22T06:47:00.724Z,20.10
2023-05-22T06:49:21.702Z,20.00
2023-05-22T06:50:21.678Z,20.21
2023-05-22T06:51:21.685Z,20.22
2023-05-22T06:52:21.656Z,20.31
2023-05-22T06:53:21.633Z,20.31
2023-05-22T06:54:21.653Z,20.28
2023-05-22T06:55:21.618Z,20.32
2023-05-22T06:56:21.594Z,20.55
2023-05-22T06:57:21.580Z,20.58
2023-05-22T06:58:21.582Z,20.58
2023-05-22T06:59:21.579Z,20.55
2023-05-22T07:00:22.074Z,20.70
2023-05-22T07:01:22.416Z,20.85
2023-05-22T07:02:21.584Z,21.02
2023-05-22T07:03:21.535Z,20.99
2023-05-22T07:04:21.500Z,21.00
2023-05-22T07:05:22.042Z,20.96
2023-05-22T07:06:21.510Z,20.93
2023-05-22T07:07:21.464Z,20.92
2023-05-22T07:08:21.478Z,21.00
2023-05-22T07:09:21.479Z,20.96
2023-05-22T07:10:21.434Z,21.07
2023-05-22T07:11:21.431Z,21.12
2023-05-22T07:12:21.417Z,21.07
2023-05-22T07:13:21.406Z,21.14
2023-05-22T07:14:21.411Z,21.14
2023-05-22T07:15:21.417Z,21.02
2023-05-22T07:16:21.393Z,20.96
2023-05-22T07:17:21.371Z,20.85
2023-05-22T07:18:21.347Z,20.84
2023-05-22T07:19:21.404Z,20.81
2023-05-22T07:20:21.349Z,20.90
2023-05-22T07:21:21.403Z,20.87
2023-05-22T07:22:21.312Z,20.84
2023-05-22T07:23:21.301Z,20.97
2023-05-22T07:24:21.276Z,20.99
2023-05-22T07:25:21.273Z,20.96
2023-05-22T07:26:21.271Z,20.87
2023-05-22T07:27:21.248Z,20.81
2023-05-22T07:28:21.240Z,20.85
2023-05-22T07:29:23.085Z,20.92
2023-05-22T07:30:21.260Z,20.82
2023-05-22T07:31:21.213Z,20.81
2023-05-22T07:32:21.272Z,20.77
2023-05-22T07:33:21.186Z,20.81
2023-05-22T07:34:21.161Z,20.81
2023-05-22T07:35:21.199Z,20.92
2023-05-22T07:36:21.169Z,20.87
2023-05-22T07:37:21.348Z,20.88
2023-05-22T07:38:21.126Z,20.85
2023-05-22T07:39:21.111Z,20.82
2023-05-22T07:40:21.109Z,20.74
2023-05-22T07:41:21.091Z,20.84
2023-05-22T07:42:21.101Z,20.80
2023-05-22T07:43:21.075Z,20.87
2023-05-22T07:44:21.065Z,20.84
2023-05-22T07:45:21.037Z,20.92
2023-05-22T07:46:21.063Z,20.84
2023-05-22T07:47:21.093Z,20.66
2023-05-22T07:48:21.004Z,20.77
2023-05-22T07:49:20.993Z,20.77
2023-05-22T07:50:20.985Z,20.77
2023-05-22T07:51:21.000Z,20.80
2023-05-22T07:52:20.966Z,20.81
2023-05-22T07:53:21.313Z,20.84
2023-05-22T07:54:20.933Z,20.85
2023-05-22T07:55:20.936Z,20.90
2023-05-22T07:56:20.918Z,20.85
2023-05-22T07:57:20.919Z,20.88
2023-05-22T07:58:20.898Z,20.82
2023-05-22T07:59:20.885Z,20.84
2023-05-22T08:00:20.870Z,20.87
2023-05-22T08:01:20.863Z,20.95
2023-05-22T08:02:21.018Z,20.97
2023-05-22T08:03:23.143Z,21.02
2023-05-22T08:04:20.900Z,21.00
2023-05-22T08:05:20.834Z,21.05
2023-05-22T08:06:20.803Z,21.02
2023-05-22T08:07:20.815Z,21.11
2023-05-22T08:08:20.779Z,21.22
2023-05-22T08:09:20.898Z,21.33
2023-05-22T08:10:20.760Z,21.29
2023-05-22T08:11:20.743Z,21.30
2023-05-22T08:12:20.736Z,21.42
2023-05-22T08:13:20.763Z,21.48
2023-05-22T08:14:20.720Z,21.46
2023-05-22T08:15:20.697Z,21.52
2023-05-22T08:16:20.692Z,21.55
2023-05-22T08:17:20.768Z,21.62
2023-05-22T08:18:20.659Z,21.72
2023-05-22T08:19:20.712Z,21.83
2023-05-22T08:20:20.701Z,21.83
2023-05-22T08:21:20.626Z,21.92
2023-05-22T08:22:20.667Z,21.99
2023-05-22T08:23:20.600Z,22.22
2023-05-22T08:24:20.588Z,22.18
2023-05-22T08:25:20.638Z,22.22
2023-05-22T08:26:20.579Z,22.22
2023-05-22T08:27:20.584Z,22.26
2023-05-22T08:28:20.544Z,22.32
2023-05-22T08:29:20.549Z,22.44
2023-05-22T08:30:20.522Z,22.41
2023-05-22T08:31:20.568Z,22.44
2023-05-22T08:32:20.584Z,22.43
2023-05-22T08:33:20.501Z,22.48
2023-05-22T08:34:20.496Z,22.57
2023-05-22T08:35:20.470Z,22.65
2023-05-22T08:36:20.479Z,22.70
2023-05-22T08:37:20.441Z,22.83
2023-05-22T08:38:20.460Z,22.99
2023-05-22T08:39:20.433Z,23.00
2023-05-22T08:40:20.416Z,23.10
2023-05-22T08:41:20.449Z,23.23
2023-05-22T08:42:20.387Z,23.23
2023-05-22T08:43:20.372Z,23.44
2023-05-22T08:44:20.415Z,23.48
2023-05-22T08:45:20.350Z,23.59
2023-05-22T08:46:20.379Z,23.69
2023-05-22T08:47:20.381Z,23.76
2023-05-22T08:48:20.352Z,23.74
2023-05-22T08:49:21.690Z,23.76
2023-05-22T08:50:20.295Z,23.66
2023-05-22T08:51:20.300Z,23.71
2023-05-22T08:52:20.276Z,23.81
2023-05-22T08:53:20.266Z,23.86
2023-05-22T08:54:20.275Z,23.95
2023-05-22T08:55:20.240Z,24.05
2023-05-22T08:56:20.258Z,24.10
2023-05-22T08:57:20.327Z,24.16
2023-05-22T08:58:20.225Z,24.14
2023-05-22T08:59:20.211Z,24.24
2023-05-22T09:00:20.197Z,24.23
2023-05-22T09:01:20.203Z,24.29
2023-05-22T09:02:20.183Z,24.24
2023-05-22T09:03:20.251Z,24.40
2023-05-22T09:04:20.146Z,24.38
2023-05-22T09:05:20.151Z,24.39
2023-05-22T09:06:20.124Z,24.53
2023-05-22T09:07:20.108Z,24.54
2023-05-22T09:08:21.212Z,24.60
2023-05-22T09:09:20.102Z,24.51
2023-05-22T09:10:20.086Z,24.55
2023-05-22T09:11:20.064Z,24.54
2023-05-22T09:12:20.066Z,24.58
2023-05-22T09:13:20.501Z,24.69
2023-05-22T09:14:20.047Z,24.81
2023-05-22T09:15:20.027Z,24.70
2023-05-22T09:16:20.061Z,24.60
2023-05-22T09:17:20.000Z,24.55
2023-05-22T09:18:20.007Z,24.42
2023-05-22T09:19:20.050Z,24.43
2023-05-22T09:20:19.969Z,24.38
2023-05-22T09:21:29.532Z,24.47
2023-05-22T09:22:22.404Z,24.57
2023-05-22T09:23:19.936Z,24.60
2023-05-22T09:24:19.981Z,24.68
2023-05-22T09:25:19.910Z,24.78
2023-05-22T09:26:19.902Z,24.78
2023-05-22T09:27:19.905Z,24.96
2023-05-22T09:28:19.889Z,24.93
2023-05-22T09:29:19.898Z,24.98
2023-05-22T09:30:19.879Z,24.93
2023-05-22T09:31:19.928Z,25.08
2023-05-22T09:32:19.834Z,25.03
2023-05-22T09:33:19.841Z,25.21
2023-05-22T09:34:19.824Z,25.25
2023-05-22T09:35:19.804Z,25.28
2023-05-22T09:36:19.791Z,25.28
2023-05-22T09:37:19.796Z,25.36
2023-05-22T09:38:19.783Z,25.38
2023-05-22T09:39:19.768Z,25.36
2023-05-22T09:40:19.766Z,25.50
2023-05-22T09:41:19.735Z,25.40
2023-05-22T09:42:19.747Z,25.33
2023-05-22T09:43:19.716Z,25.36
2023-05-22T09:44:19.718Z,25.48
2023-05-22T09:45:19.732Z,25.46
2023-05-22T09:46:19.743Z,25.54
2023-05-22T09:47:19.709Z,25.66
2023-05-22T09:48:19.671Z,25.70
2023-05-22T09:49:19.652Z,25.68
2023-05-22T09:50:19.637Z,25.60
2023-05-22T09:51:19.632Z,25.53
2023-05-22T09:52:19.616Z,25.46
2023-05-22T09:53:19.615Z,25.40
2023-05-22T09:54:19.594Z,25.29
2023-05-22T09:55:19.578Z,25.36
2023-05-22T09:56:27.534Z,25.48
2023-05-22T09:57:20.574Z,25.54
2023-05-22T09:58:19.575Z,25.63
2023-05-22T09:59:19.538Z,25.48
2023-05-22T10:00:19.528Z,25.58
2023-05-22T10:01:19.556Z,25.70
2023-05-22T10:02:19.523Z,25.77
2023-05-22T10:03:19.508Z,25.68
2023-05-22T10:04:19.548Z,25.77
2023-05-22T10:05:19.469Z,25.73
2023-05-22T10:06:19.466Z,25.78
2023-05-22T10:07:19.454Z,25.78
2023-05-22T10:08:19.442Z,25.75
2023-05-22T10:09:19.755Z,25.83
2023-05-22T10:10:19.415Z,25.80
2023-05-22T10:11:19.402Z,25.87
2023-05-22T10:12:19.395Z,25.88
2023-05-22T10:13:19.389Z,25.87
2023-05-22T10:14:19.384Z,25.91
2023-05-22T10:15:19.382Z,25.85
2023-05-22T10:16:19.427Z,25.87
2023-05-22T10:17:19.460Z,25.88
2023-05-22T10:18:19.343Z,25.90
2023-05-22T10:19:19.366Z,25.87
2023-05-22T10:20:19.307Z,25.85
2023-05-22T10:21:19.307Z,25.90
2023-05-22T10:22:19.279Z,25.90
2023-05-22T10:23:19.342Z,25.95
2023-05-22T10:24:19.265Z,25.96
2023-05-22T10:25:19.259Z,25.99
2023-05-22T10:26:19.245Z,25.99
2023-05-22T10:27:19.230Z,26.03
2023-05-22T10:28:19.211Z,25.96
2023-05-22T10:29:19.217Z,25.85
2023-05-22T10:30:19.192Z,25.85
2023-05-22T10:31:19.185Z,25.95
2023-05-22T10:32:19.170Z,25.88
2023-05-22T10:33:19.335Z,25.99
2023-05-22T10:34:19.154Z,26.18
2023-05-22T10:35:19.149Z,26.19
2023-05-22T10:36:19.305Z,26.15
2023-05-22T10:37:20.742Z,26.25
2023-05-22T10:38:19.101Z,26.26
2023-05-22T10:39:19.124Z,26.16
2023-05-22T10:40:19.075Z,26.26
2023-05-22T10:41:19.070Z,26.15
2023-05-22T10:42:19.060Z,26.15
2023-05-22T10:43:19.048Z,26.22
2023-05-22T10:44:19.036Z,26.23
2023-05-22T10:45:19.035Z,26.43
2023-05-22T10:46:19.099Z,26.55
2023-05-22T10:47:19.010Z,26.52
2023-05-22T10:48:18.990Z,26.53
2023-05-22T10:49:19.104Z,26.53
2023-05-22T10:50:18.983Z,26.40
2023-05-22T10:51:18.958Z,26.44
2023-05-22T10:52:18.949Z,26.45
2023-05-22T10:53:18.944Z,26.41
2023-05-22T10:54:18.924Z,26.33
2023-05-22T10:55:18.954Z,26.47
2023-05-22T10:56:18.914Z,26.38
2023-05-22T10:57:18.893Z,26.37
2023-05-22T10:58:18.877Z,26.25
2023-05-22T10:59:18.869Z,26.22
2023-05-22T11:00:18.860Z,26.16
2023-05-22T11:01:18.966Z,26.23
2023-05-22T11:02:18.917Z,26.10
2023-05-22T11:03:18.996Z,26.03
2023-05-22T11:04:18.869Z,25.98
2023-05-22T11:05:18.856Z,25.96
2023-05-22T11:06:18.790Z,25.99
2023-05-22T11:07:18.812Z,26.00
2023-05-22T11:08:19.481Z,26.13
2023-05-22T11:09:18.769Z,26.16
2023-05-22T11:10:18.744Z,26.26
2023-05-22T11:11:18.752Z,26.36
2023-05-22T11:12:18.745Z,26.41
2023-05-22T11:13:18.715Z,26.41
2023-05-22T11:14:18.705Z,26.45
2023-05-22T11:15:18.692Z,26.56
2023-05-22T11:16:18.730Z,26.70
2023-05-22T11:17:18.677Z,26.68
2023-05-22T11:18:18.725Z,26.71
2023-05-22T11:19:23.153Z,26.66
2023-05-22T11:20:19.636Z,26.56
2023-05-22T11:21:18.748Z,26.62
2023-05-22T11:22:18.615Z,26.70
2023-05-22T11:23:18.607Z,26.70
2023-05-22T11:24:18.614Z,26.77
2023-05-22T11:25:18.579Z,26.74
2023-05-22T11:26:18.589Z,26.84
2023-05-22T11:27:18.585Z,26.81
2023-05-22T11:28:18.553Z,26.78
2023-05-22T11:29:18.544Z,26.47
2023-05-22T11:30:18.518Z,26.40
2023-05-22T11:31:18.722Z,26.26
2023-05-22T11:32:18.503Z,26.26
2023-05-22T11:33:18.585Z,26.29
2023-05-22T11:34:18.483Z,26.52
2023-05-22T11:35:18.479Z,26.45
2023-05-22T11:36:18.456Z,26.52
2023-05-22T11:37:18.577Z,26.36
2023-05-22T11:38:18.435Z,26.40
2023-05-22T11:39:18.436Z,26.31
2023-05-22T11:40:18.412Z,26.25
2023-05-22T11:41:18.398Z,26.13
2023-05-22T11:42:18.414Z,25.93
2023-05-22T11:43:18.397Z,25.96
2023-05-22T11:44:18.398Z,25.85
2023-05-22T11:45:18.360Z,25.73
2023-05-22T11:46:18.373Z,25.69
2023-05-22T11:47:18.348Z,25.55
2023-05-22T11:48:18.394Z,25.46
2023-05-22T11:49:18.355Z,25.70
2023-05-22T11:50:29.237Z,25.70
2023-05-22T11:51:19.289Z,25.83
2023-05-22T11:52:18.275Z,25.95
2023-05-22T11:53:18.421Z,25.90
2023-05-22T11:54:18.262Z,26.09
2023-05-22T11:55:18.252Z,26.05
2023-05-22T11:56:18.291Z,26.15
2023-05-22T11:57:18.222Z,26.26
2023-05-22T11:58:18.207Z,26.36
2023-05-22T11:59:18.215Z,26.45
2023-05-22T12:00:18.274Z,26.56
2023-05-22T12:01:18.171Z,26.56
2023-05-22T12:02:18.168Z,26.66
2023-05-22T12:03:18.209Z,26.45
2023-05-22T12:04:18.200Z,26.45
2023-05-22T12:05:18.163Z,26.38
2023-05-22T12:06:18.122Z,26.16
2023-05-22T12:07:18.111Z,26.10
2023-05-22T12:08:18.090Z,26.25
2023-05-22T12:09:18.213Z,26.26
2023-05-22T12:10:18.085Z,26.34
2023-05-22T12:11:18.062Z,26.29
2023-05-22T12:12:19.091Z,26.18
2023-05-22T12:13:18.040Z,26.13
2023-05-22T12:14:18.032Z,26.28
2023-05-22T12:15:18.017Z,26.26
2023-05-22T12:16:18.058Z,26.25
2023-05-22T12:17:17.996Z,26.16
2023-05-22T12:18:17.984Z,26.15
2023-05-22T12:19:18.007Z,26.03
2023-05-22T12:20:17.976Z,25.96
2023-05-22T12:21:17.944Z,25.91
2023-05-22T12:22:17.937Z,25.91
2023-05-22T12:23:17.922Z,25.87
2023-05-22T12:24:17.921Z,25.90
2023-05-22T12:25:18.070Z,25.87
2023-05-22T12:26:17.902Z,26.00
2023-05-22T12:27:17.878Z,26.00
2023-05-22T12:28:17.863Z,25.98
2023-05-22T12:29:17.866Z,25.91
2023-05-22T12:30:17.961Z,25.93
2023-05-22T12:31:17.840Z,25.91
2023-05-22T12:32:17.925Z,25.96
2023-05-22T12:33:17.930Z,25.96
2023-05-22T12:34:17.808Z,26.09
2023-05-22T12:35:17.841Z,26.37
2023-05-22T12:36:17.778Z,26.45
2023-05-22T12:37:17.779Z,26.55
2023-05-22T12:38:17.752Z,26.52
2023-05-22T12:39:17.759Z,26.51
2023-05-22T12:40:17.762Z,26.60
2023-05-22T12:41:17.859Z,26.52
2023-05-22T12:42:17.715Z,26.48
2023-05-22T12:43:17.704Z,26.34
2023-05-22T12:44:17.694Z,26.31
2023-05-22T12:45:17.742Z,26.43
2023-05-22T12:46:17.743Z,26.45
2023-05-22T12:47:17.654Z,26.55
2023-05-22T12:48:17.657Z,26.65
2023-05-22T12:49:17.637Z,26.60
2023-05-22T12:50:17.618Z,26.68
2023-05-22T12:51:19.963Z,26.68
2023-05-22T12:52:17.599Z,26.75
2023-05-22T12:53:17.592Z,26.81